sensor_id;sensor_type;location;lat;lon;timestamp;pressure;altitude;pressure_sealevel;temperature
28905;BMP280;60848;53.884;11.446;2023-05-25T00:00:35;102140.94;;;14.64
28905;BMP280;60848;53.884;11.446;2023-05-25T00:03:15;102138.28;;;14.64
28905;BMP280;60848;53.884;11.446;2023-05-25T00:05:44;102136.78;;;14.63
28905;BMP280;60848;53.884;11.446;2023-05-25T00:08:14;102133.38;;;14.63
28905;BMP280;60848;53.884;11.446;2023-05-25T00:10:44;102127.00;;;14.64
28905;BMP280;60848;53.884;11.446;2023-05-25T00:13:15;102131.16;;;14.65
28905;BMP280;60848;53.884;11.446;2023-05-25T00:15:43;102134.56;;;14.65
28905;BMP280;60848;53.884;11.446;2023-05-25T00:18:14;102145.47;;;14.67
28905;BMP280;60848;53.884;11.446;2023-05-25T00:20:44;102140.97;;;14.68
28905;BMP280;60848;53.884;11.446;2023-05-25T00:23:16;102137.59;;;14.67
28905;BMP280;60848;53.884;11.446;2023-05-25T00:25:48;102140.22;;;14.67
28905;BMP280;60848;53.884;11.446;2023-05-25T00:28:17;102142.50;;;14.69
28905;BMP280;60848;53.884;11.446;2023-05-25T00:30:47;102142.09;;;14.67
28905;BMP280;60848;53.884;11.446;2023-05-25T00:33:16;102147.75;;;14.69
28905;BMP280;60848;53.884;11.446;2023-05-25T00:35:46;102142.84;;;14.67
28905;BMP280;60848;53.884;11.446;2023-05-25T00:38:16;102142.50;;;14.69
28905;BMP280;60848;53.884;11.446;2023-05-25T00:40:45;102147.75;;;14.69
28905;BMP280;60848;53.884;11.446;2023-05-25T00:43:14;102144.00;;;14.70
28905;BMP280;60848;53.884;11.446;2023-05-25T00:45:43;102138.00;;;14.69
28905;BMP280;60848;53.884;11.446;2023-05-25T00:48:12;102152.25;;;14.68
28905;BMP280;60848;53.884;11.446;2023-05-25T00:50:42;102153.81;;;14.69
28905;BMP280;60848;53.884;11.446;2023-05-25T00:53:12;102145.91;;;14.69
28905;BMP280;60848;53.884;11.446;2023-05-25T00:55:44;102154.91;;;14.68
28905;BMP280;60848;53.884;11.446;2023-05-25T00:58:13;102145.91;;;14.69
28905;BMP280;60848;53.884;11.446;2023-05-25T01:00:47;102147.34;;;14.67
28905;BMP280;60848;53.884;11.446;2023-05-25T01:03:20;102147.72;;;14.65
28905;BMP280;60848;53.884;11.446;2023-05-25T01:05:54;102151.47;;;14.64
28905;BMP280;60848;53.884;11.446;2023-05-25T01:08:24;102149.19;;;14.63
28905;BMP280;60848;53.884;11.446;2023-05-25T01:10:52;102146.13;;;14.61
28905;BMP280;60848;53.884;11.446;2023-05-25T01:13:22;102148.00;;;14.60
28905;BMP280;60848;53.884;11.446;2023-05-25T01:15:51;102144.19;;;14.58
28905;BMP280;60848;53.884;11.446;2023-05-25T01:18:20;102148.72;;;14.57
28905;BMP280;60848;53.884;11.446;2023-05-25T01:20:56;102151.34;;;14.57
28905;BMP280;60848;53.884;11.446;2023-05-25T01:23:31;102145.31;;;14.57
28905;BMP280;60848;53.884;11.446;2023-05-25T01:26:04;102155.84;;;14.57
28905;BMP280;60848;53.884;11.446;2023-05-25T01:28:36;102154.31;;;14.56
28905;BMP280;60848;53.884;11.446;2023-05-25T01:31:06;102152.84;;;14.55
28905;BMP280;60848;53.884;11.446;2023-05-25T01:33:35;102154.69;;;14.54
28905;BMP280;60848;53.884;11.446;2023-05-25T01:36:06;102152.41;;;14.53
28905;BMP280;60848;53.884;11.446;2023-05-25T01:38:35;102158.03;;;14.51
28905;BMP280;60848;53.884;11.446;2023-05-25T01:41:04;102161.41;;;14.52
28905;BMP280;60848;53.884;11.446;2023-05-25T01:43:32;102165.56;;;14.53
28905;BMP280;60848;53.884;11.446;2023-05-25T01:46:07;102169.28;;;14.52
28905;BMP280;60848;53.884;11.446;2023-05-25T01:48:40;102164.81;;;14.52
28905;BMP280;60848;53.884;11.446;2023-05-25T01:51:16;102164.81;;;14.52
28905;BMP280;60848;53.884;11.446;2023-05-25T01:53:49;102164.81;;;14.52
28905;BMP280;60848;53.884;11.446;2023-05-25T01:56:19;102164.81;;;14.52
28905;BMP280;60848;53.884;11.446;2023-05-25T01:58:49;102165.56;;;14.53
28905;BMP280;60848;53.884;11.446;2023-05-25T02:01:18;102161.41;;;14.52
28905;BMP280;60848;53.884;11.446;2023-05-25T02:03:47;102166.66;;;14.52
28905;BMP280;60848;53.884;11.446;2023-05-25T02:06:17;102150.13;;;14.51
28905;BMP280;60848;53.884;11.446;2023-05-25T02:08:46;102150.88;;;14.52
28905;BMP280;60848;53.884;11.446;2023-05-25T02:11:15;102160.25;;;14.49
28905;BMP280;60848;53.884;11.446;2023-05-25T02:13:45;102152.69;;;14.48
28905;BMP280;60848;53.884;11.446;2023-05-25T02:16:15;102148.56;;;14.47
28905;BMP280;60848;53.884;11.446;2023-05-25T02:18:44;102153.47;;;14.48
28905;BMP280;60848;53.884;11.446;2023-05-25T02:21:15;102150.06;;;14.48
28905;BMP280;60848;53.884;11.446;2023-05-25T02:23:45;102154.59;;;14.47
28905;BMP280;60848;53.884;11.446;2023-05-25T02:26:13;102156.44;;;14.47
28905;BMP280;60848;53.884;11.446;2023-05-25T02:28:44;102148.91;;;14.45
28905;BMP280;60848;53.884;11.446;2023-05-25T02:31:16;102150.38;;;14.43
28905;BMP280;60848;53.884;11.446;2023-05-25T02:33:46;102158.28;;;14.43
28905;BMP280;60848;53.884;11.446;2023-05-25T02:36:14;102160.13;;;14.42
28905;BMP280;60848;53.884;11.446;2023-05-25T02:38:44;102159.34;;;14.42
28905;BMP280;60848;53.884;11.446;2023-05-25T02:41:17;102161.56;;;14.40
28905;BMP280;60848;53.884;11.446;2023-05-25T02:43:46;102162.34;;;14.40
28905;BMP280;60848;53.884;11.446;2023-05-25T02:46:15;102152.59;;;14.41
28905;BMP280;60848;53.884;11.446;2023-05-25T02:48:43;102162.69;;;14.39
28905;BMP280;60848;53.884;11.446;2023-05-25T02:51:12;102155.88;;;14.38
28905;BMP280;60848;53.884;11.446;2023-05-25T02:53:45;102149.13;;;14.37
28905;BMP280;60848;53.884;11.446;2023-05-25T02:56:14;102156.63;;;14.35
28905;BMP280;60848;53.884;11.446;2023-05-25T02:58:44;102156.97;;;14.33
28905;BMP280;60848;53.884;11.446;2023-05-25T03:01:17;102155.44;;;14.32
28905;BMP280;60848;53.884;11.446;2023-05-25T03:03:50;102159.19;;;14.31
28905;BMP280;60848;53.884;11.446;2023-05-25T03:06:22;102153.53;;;14.29
28905;BMP280;60848;53.884;11.446;2023-05-25T03:09:06;102149.69;;;14.27
28905;BMP280;60848;53.884;11.446;2023-05-25T03:11:37;102153.41;;;14.26
28905;BMP280;60848;53.884;11.446;2023-05-25T03:14:08;102148.94;;;14.26
28905;BMP280;60848;53.884;11.446;2023-05-25T03:16:38;102162.84;;;14.27
28905;BMP280;60848;53.884;11.446;2023-05-25T03:19:09;102156.06;;;14.26
28905;BMP280;60848;53.884;11.446;2023-05-25T03:21:41;102161.31;;;14.26
28905;BMP280;60848;53.884;11.446;2023-05-25T03:24:13;102159.84;;;14.25
28905;BMP280;60848;53.884;11.446;2023-05-25T03:26:43;102156.44;;;14.24
28905;BMP280;60848;53.884;11.446;2023-05-25T03:29:11;102163.56;;;14.24
28905;BMP280;60848;53.884;11.446;2023-05-25T03:31:40;102168.09;;;14.23
28905;BMP280;60848;53.884;11.446;2023-05-25T03:34:08;102171.81;;;14.22
28905;BMP280;60848;53.884;11.446;2023-05-25T03:36:38;102167.97;;;14.20
28905;BMP280;60848;53.884;11.446;2023-05-25T03:39:08;102173.63;;;14.18
28905;BMP280;60848;53.884;11.446;2023-05-25T03:41:38;102187.13;;;14.17
28905;BMP280;60848;53.884;11.446;2023-05-25T03:44:07;102178.81;;;14.15
28905;BMP280;60848;53.884;11.446;2023-05-25T03:46:37;102190.41;;;14.14
28905;BMP280;60848;53.884;11.446;2023-05-25T03:49:05;102190.81;;;14.12
28905;BMP280;60848;53.884;11.446;2023-05-25T03:51:35;102187.75;;;14.10
28905;BMP280;60848;53.884;11.446;2023-05-25T03:54:03;102185.88;;;14.11
28905;BMP280;60848;53.884;11.446;2023-05-25T03:56:32;102190.38;;;14.10
28905;BMP280;60848;53.884;11.446;2023-05-25T03:59:01;102194.88;;;14.10
28905;BMP280;60848;53.884;11.446;2023-05-25T04:01:32;102200.91;;;14.10
28905;BMP280;60848;53.884;11.446;2023-05-25T04:04:05;102203.19;;;14.12
28905;BMP280;60848;53.884;11.446;2023-05-25T04:06:35;102197.91;;;14.12
28905;BMP280;60848;53.884;11.446;2023-05-25T04:09:06;102197.91;;;14.12
28905;BMP280;60848;53.884;11.446;2023-05-25T04:11:34;102192.31;;;14.13
28905;BMP280;60848;53.884;11.446;2023-05-25T04:14:06;102199.50;;;14.16
28905;BMP280;60848;53.884;11.446;2023-05-25T04:16:38;102193.16;;;14.17
28905;BMP280;60848;53.884;11.446;2023-05-25T04:19:08;102196.22;;;14.19
28905;BMP280;60848;53.884;11.446;2023-05-25T04:21:36;102203.72;;;14.21
28905;BMP280;60848;53.884;11.446;2023-05-25T04:24:05;102202.63;;;14.22
28905;BMP280;60848;53.884;11.446;2023-05-25T04:26:34;102197.03;;;14.23
28905;BMP280;60848;53.884;11.446;2023-05-25T04:29:09;102203.44;;;14.26
28905;BMP280;60848;53.884;11.446;2023-05-25T04:32:10;102216.25;;;14.27
28905;BMP280;60848;53.884;11.446;2023-05-25T04:35:04;102219.31;;;14.29
28905;BMP280;60848;53.884;11.446;2023-05-25T04:37:39;102220.84;;;14.30
28905;BMP280;60848;53.884;11.446;2023-05-25T04:40:09;102223.47;;;14.30
28905;BMP280;60848;53.884;11.446;2023-05-25T04:42:41;102225.72;;;14.32
28905;BMP280;60848;53.884;11.446;2023-05-25T04:45:12;102226.50;;;14.32
28905;BMP280;60848;53.884;11.446;2023-05-25T04:47:43;102241.94;;;14.34
28905;BMP280;60848;53.884;11.446;2023-05-25T04:50:16;102231.09;;;14.35
28905;BMP280;60848;53.884;11.446;2023-05-25T04:52:44;102225.47;;;14.37
28905;BMP280;60848;53.884;11.446;2023-05-25T04:55:13;102230.75;;;14.37
28905;BMP280;60848;53.884;11.446;2023-05-25T04:57:42;102229.28;;;14.39
28905;BMP280;60848;53.884;11.446;2023-05-25T05:00:13;102227.81;;;14.42
28905;BMP280;60848;53.884;11.446;2023-05-25T05:02:44;102230.78;;;14.40
28905;BMP280;60848;53.884;11.446;2023-05-25T05:05:13;102231.13;;;14.39
28905;BMP280;60848;53.884;11.446;2023-05-25T05:07:42;102233.00;;;14.38
28905;BMP280;60848;53.884;11.446;2023-05-25T05:10:10;102237.91;;;14.40
28905;BMP280;60848;53.884;11.446;2023-05-25T05:12:44;102239.22;;;14.49
28905;BMP280;60848;53.884;11.446;2023-05-25T05:15:16;102242.44;;;14.62
28905;BMP280;60848;53.884;11.446;2023-05-25T05:17:46;102240.28;;;14.67
28905;BMP280;60848;53.884;11.446;2023-05-25T05:20:14;102239.59;;;14.70
28905;BMP280;60848;53.884;11.446;2023-05-25T05:22:45;102234.72;;;14.72
28905;BMP280;60848;53.884;11.446;2023-05-25T05:25:14;102243.47;;;14.76
28905;BMP280;60848;53.884;11.446;2023-05-25T05:27:45;102238.69;;;14.82
28905;BMP280;60848;53.884;11.446;2023-05-25T05:30:24;102243.56;;;14.83
28905;BMP280;60848;53.884;11.446;2023-05-25T05:32:54;102246.63;;;14.85
28905;BMP280;60848;53.884;11.446;2023-05-25T05:35:27;102251.53;;;14.87
28905;BMP280;60848;53.884;11.446;2023-05-25T05:38:04;102244.44;;;14.91
28905;BMP280;60848;53.884;11.446;2023-05-25T05:40:33;102242.69;;;14.98
28905;BMP280;60848;53.884;11.446;2023-05-25T05:43:01;102240.94;;;15.06
28905;BMP280;60848;53.884;11.446;2023-05-25T05:45:31;102249.69;;;15.13
28905;BMP280;60848;53.884;11.446;2023-05-25T05:48:00;102249.38;;;15.18
28905;BMP280;60848;53.884;11.446;2023-05-25T05:50:33;102245.66;;;15.19
28905;BMP280;60848;53.884;11.446;2023-05-25T05:53:01;102248.28;;;15.19
28905;BMP280;60848;53.884;11.446;2023-05-25T05:55:30;102256.59;;;15.21
28905;BMP280;60848;53.884;11.446;2023-05-25T05:57:58;102257.38;;;15.22
28905;BMP280;60848;53.884;11.446;2023-05-25T06:00:27;102257.75;;;15.24
28905;BMP280;60848;53.884;11.446;2023-05-25T06:02:57;102268.31;;;15.24
28905;BMP280;60848;53.884;11.446;2023-05-25T06:05:28;102269.41;;;15.23
28905;BMP280;60848;53.884;11.446;2023-05-25T06:07:57;102272.44;;;15.21
28905;BMP280;60848;53.884;11.446;2023-05-25T06:10:26;102267.16;;;15.21
28905;BMP280;60848;53.884;11.446;2023-05-25T06:12:54;102275.09;;;15.25
28905;BMP280;60848;53.884;11.446;2023-05-25T06:15:23;102270.25;;;15.27
28905;BMP280;60848;53.884;11.446;2023-05-25T06:17:54;102269.53;;;15.30
28905;BMP280;60848;53.884;11.446;2023-05-25T06:20:24;102289.22;;;15.36
28905;BMP280;60848;53.884;11.446;2023-05-25T06:22:56;102281.09;;;15.48
28905;BMP280;60848;53.884;11.446;2023-05-25T06:25:24;102287.75;;;15.64
28905;BMP280;60848;53.884;11.446;2023-05-25T06:27:54;102288.66;;;15.79
28905;BMP280;60848;53.884;11.446;2023-05-25T06:30:25;102301.31;;;15.96
28905;BMP280;60848;53.884;11.446;2023-05-25T06:32:53;102295.31;;;15.99
28905;BMP280;60848;53.884;11.446;2023-05-25T06:35:22;102296.91;;;16.03
28905;BMP280;60848;53.884;11.446;2023-05-25T06:37:52;102294.69;;;16.09
28905;BMP280;60848;53.884;11.446;2023-05-25T06:40:21;102297.78;;;16.15
28905;BMP280;60848;53.884;11.446;2023-05-25T06:42:49;102303.91;;;16.22
28905;BMP280;60848;53.884;11.446;2023-05-25T06:45:40;102306.19;;;16.24
28905;BMP280;60848;53.884;11.446;2023-05-25T06:48:08;102304.66;;;16.23
28905;BMP280;60848;53.884;11.446;2023-05-25T06:50:40;102301.25;;;16.22
28905;BMP280;60848;53.884;11.446;2023-05-25T06:53:10;102306.53;;;16.22
28905;BMP280;60848;53.884;11.446;2023-05-25T06:55:42;102310.75;;;16.27
28905;BMP280;60848;53.884;11.446;2023-05-25T06:58:10;102308.88;;;16.31
28905;BMP280;60848;53.884;11.446;2023-05-25T07:00:39;102310.03;;;16.30
28905;BMP280;60848;53.884;11.446;2023-05-25T07:03:08;102305.47;;;16.27
28905;BMP280;60848;53.884;11.446;2023-05-25T07:05:37;102305.44;;;16.23
28905;BMP280;60848;53.884;11.446;2023-05-25T07:08:05;102309.19;;;16.22
28905;BMP280;60848;53.884;11.446;2023-05-25T07:10:35;102309.59;;;16.24
28905;BMP280;60848;53.884;11.446;2023-05-25T07:13:03;102313.75;;;16.25
28905;BMP280;60848;53.884;11.446;2023-05-25T07:15:32;102315.31;;;16.30
28905;BMP280;60848;53.884;11.446;2023-05-25T07:18:00;102318.78;;;16.37
28905;BMP280;60848;53.884;11.446;2023-05-25T07:20:29;102313.19;;;16.46
28905;BMP280;60848;53.884;11.446;2023-05-25T07:23:00;102313.63;;;16.51
28905;BMP280;60848;53.884;11.446;2023-05-25T07:25:29;102315.56;;;16.54
28905;BMP280;60848;53.884;11.446;2023-05-25T07:27:59;102316.31;;;16.55
28905;BMP280;60848;53.884;11.446;2023-05-25T07:30:28;102315.56;;;16.58
28905;BMP280;60848;53.884;11.446;2023-05-25T07:32:59;102317.13;;;16.62
28905;BMP280;60848;53.884;11.446;2023-05-25T07:35:28;102323.19;;;16.66
28905;BMP280;60848;53.884;11.446;2023-05-25T07:37:57;102319.88;;;16.69
28905;BMP280;60848;53.884;11.446;2023-05-25T07:40:25;102324.81;;;16.74
28905;BMP280;60848;53.884;11.446;2023-05-25T07:42:54;102325.94;;;16.77
28905;BMP280;60848;53.884;11.446;2023-05-25T07:45:24;102333.88;;;16.77
28905;BMP280;60848;53.884;11.446;2023-05-25T07:47:52;102326.72;;;16.77
28905;BMP280;60848;53.884;11.446;2023-05-25T07:50:21;102332.78;;;16.78
28905;BMP280;60848;53.884;11.446;2023-05-25T07:52:49;102339.56;;;16.79
28905;BMP280;60848;53.884;11.446;2023-05-25T07:55:18;102337.34;;;16.84
28905;BMP280;60848;53.884;11.446;2023-05-25T07:57:47;102349.47;;;16.89
28905;BMP280;60848;53.884;11.446;2023-05-25T08:00:18;102344.97;;;16.93
28905;BMP280;60848;53.884;11.446;2023-05-25T08:02:48;102342.00;;;16.98
28905;BMP280;60848;53.884;11.446;2023-05-25T08:05:17;102342.03;;;17.01
28905;BMP280;60848;53.884;11.446;2023-05-25T08:07:46;102353.00;;;17.03
28905;BMP280;60848;53.884;11.446;2023-05-25T08:10:14;102351.56;;;17.09
28905;BMP280;60848;53.884;11.446;2023-05-25T08:12:44;102347.56;;;17.33
28905;BMP280;60848;53.884;11.446;2023-05-25T08:15:16;102351.13;;;17.65
28905;BMP280;60848;53.884;11.446;2023-05-25T08:17:48;102355.81;;;17.85
28905;BMP280;60848;53.884;11.446;2023-05-25T08:20:17;102353.22;;;17.99
28905;BMP280;60848;53.884;11.446;2023-05-25T08:22:45;102352.56;;;18.34
28905;BMP280;60848;53.884;11.446;2023-05-25T08:25:14;102357.97;;;18.80
28905;BMP280;60848;53.884;11.446;2023-05-25T08:27:42;102351.09;;;19.03
28905;BMP280;60848;53.884;11.446;2023-05-25T08:30:11;102351.47;;;19.16
28905;BMP280;60848;53.884;11.446;2023-05-25T08:32:39;102360.56;;;19.22
28905;BMP280;60848;53.884;11.446;2023-05-25T08:35:09;102358.28;;;19.27
28905;BMP280;60848;53.884;11.446;2023-05-25T08:37:40;102356.75;;;19.37
28905;BMP280;60848;53.884;11.446;2023-05-25T08:40:13;102357.47;;;19.48
28905;BMP280;60848;53.884;11.446;2023-05-25T08:42:42;102359.38;;;19.54
28905;BMP280;60848;53.884;11.446;2023-05-25T08:45:11;102366.50;;;19.68
28905;BMP280;60848;53.884;11.446;2023-05-25T08:47:59;102371.78;;;19.78
28905;BMP280;60848;53.884;11.446;2023-05-25T08:50:30;102371.00;;;19.88
28905;BMP280;60848;53.884;11.446;2023-05-25T08:53:01;102365.16;;;20.18
28905;BMP280;60848;53.884;11.446;2023-05-25T08:55:32;102374.56;;;20.33
28905;BMP280;60848;53.884;11.446;2023-05-25T08:58:05;102366.94;;;20.31
28905;BMP280;60848;53.884;11.446;2023-05-25T09:00:39;102369.66;;;20.24
28905;BMP280;60848;53.884;11.446;2023-05-25T09:03:12;102373.91;;;20.15
28905;BMP280;60848;53.884;11.446;2023-05-25T09:05:46;102383.81;;;20.04
28905;BMP280;60848;53.884;11.446;2023-05-25T09:08:14;102385.41;;;19.87
28905;BMP280;60848;53.884;11.446;2023-05-25T09:10:44;102394.97;;;19.67
28905;BMP280;60848;53.884;11.446;2023-05-25T09:13:12;102400.31;;;19.53
28905;BMP280;60848;53.884;11.446;2023-05-25T09:15:43;102400.72;;;19.48
28905;BMP280;60848;53.884;11.446;2023-05-25T09:18:14;102407.94;;;19.44
28905;BMP280;60848;53.884;11.446;2023-05-25T09:20:43;102403.78;;;19.36
28905;BMP280;60848;53.884;11.446;2023-05-25T09:23:17;102401.84;;;19.37
28905;BMP280;60848;53.884;11.446;2023-05-25T09:25:47;102405.63;;;19.50
28905;BMP280;60848;53.884;11.446;2023-05-25T09:28:19;102403.31;;;19.55
28905;BMP280;60848;53.884;11.446;2023-05-25T09:30:50;102392.34;;;19.60
28905;BMP280;60848;53.884;11.446;2023-05-25T09:33:20;102408.16;;;19.85
28905;BMP280;60848;53.884;11.446;2023-05-25T09:35:51;102408.03;;;20.20
28905;BMP280;60848;53.884;11.446;2023-05-25T09:38:23;102405.66;;;20.36
28905;BMP280;60848;53.884;11.446;2023-05-25T09:40:52;102400.91;;;20.64
28905;BMP280;60848;53.884;11.446;2023-05-25T09:43:20;102405.16;;;21.02
28905;BMP280;60848;53.884;11.446;2023-05-25T09:46:11;102407.59;;;21.27
28905;BMP280;60848;53.884;11.446;2023-05-25T09:48:39;102412.97;;;21.57
28905;BMP280;60848;53.884;11.446;2023-05-25T09:51:09;102407.81;;;22.03
28905;BMP280;60848;53.884;11.446;2023-05-25T09:53:40;102406.22;;;22.35
28905;BMP280;60848;53.884;11.446;2023-05-25T09:56:10;102402.75;;;22.38
28905;BMP280;60848;53.884;11.446;2023-05-25T09:58:40;102402.97;;;22.47
28905;BMP280;60848;53.884;11.446;2023-05-25T10:01:08;102407.53;;;22.50
28905;BMP280;60848;53.884;11.446;2023-05-25T10:03:43;102408.78;;;22.42
28905;BMP280;60848;53.884;11.446;2023-05-25T10:06:30;102413.41;;;22.38
28905;BMP280;60848;53.884;11.446;2023-05-25T10:09:00;102412.88;;;22.47
28905;BMP280;60848;53.884;11.446;2023-05-25T10:11:31;102422.06;;;22.46
28905;BMP280;60848;53.884;11.446;2023-05-25T10:14:00;102402.84;;;22.31
28905;BMP280;60848;53.884;11.446;2023-05-25T10:16:32;102414.06;;;22.19
28905;BMP280;60848;53.884;11.446;2023-05-25T10:19:05;102422.88;;;22.16
28905;BMP280;60848;53.884;11.446;2023-05-25T10:21:34;102424.34;;;22.21
28905;BMP280;60848;53.884;11.446;2023-05-25T10:24:11;102417.84;;;22.22
28905;BMP280;60848;53.884;11.446;2023-05-25T10:26:42;102413.31;;;22.19
28905;BMP280;60848;53.884;11.446;2023-05-25T10:29:15;102420.72;;;22.08
28905;BMP280;60848;53.884;11.446;2023-05-25T10:31:46;102420.59;;;21.88
28905;BMP280;60848;53.884;11.446;2023-05-25T10:34:15;102422.69;;;21.70
28905;BMP280;60848;53.884;11.446;2023-05-25T10:36:44;102416.00;;;21.59
28905;BMP280;60848;53.884;11.446;2023-05-25T10:39:16;102427.63;;;21.38
28905;BMP280;60848;53.884;11.446;2023-05-25T10:41:46;102432.31;;;21.27
28905;BMP280;60848;53.884;11.446;2023-05-25T10:44:15;102436.59;;;21.14
28905;BMP280;60848;53.884;11.446;2023-05-25T10:46:44;102433.31;;;21.03
28905;BMP280;60848;53.884;11.446;2023-05-25T10:49:24;102433.31;;;20.96
28905;BMP280;60848;53.884;11.446;2023-05-25T10:51:56;102431.88;;;20.88
28905;BMP280;60848;53.884;11.446;2023-05-25T10:54:30;102440.66;;;20.82
28905;BMP280;60848;53.884;11.446;2023-05-25T10:57:07;102440.66;;;20.82
28905;BMP280;60848;53.884;11.446;2023-05-25T10:59:39;102448.31;;;20.76
28905;BMP280;60848;53.884;11.446;2023-05-25T11:02:07;102446.06;;;20.68
28905;BMP280;60848;53.884;11.446;2023-05-25T11:04:38;102446.19;;;20.57
28905;BMP280;60848;53.884;11.446;2023-05-25T11:07:08;102450.38;;;20.55
28905;BMP280;60848;53.884;11.446;2023-05-25T11:09:55;102443.91;;;20.52
28905;BMP280;60848;53.884;11.446;2023-05-25T11:12:25;102437.81;;;20.52
28905;BMP280;60848;53.884;11.446;2023-05-25T11:15:11;102448.91;;;20.47
28905;BMP280;60848;53.884;11.446;2023-05-25T11:17:59;102447.34;;;20.49
28905;BMP280;60848;53.884;11.446;2023-05-25T11:20:28;102448.47;;;20.52
28905;BMP280;60848;53.884;11.446;2023-05-25T11:23:13;102437.44;;;20.53
28905;BMP280;60848;53.884;11.446;2023-05-25T11:25:52;102444.69;;;20.53
28905;BMP280;60848;53.884;11.446;2023-05-25T11:28:31;102450.38;;;20.48
28905;BMP280;60848;53.884;11.446;2023-05-25T11:30:59;102442.44;;;20.44
28905;BMP280;60848;53.884;11.446;2023-05-25T11:33:31;102444.31;;;20.47
28905;BMP280;60848;53.884;11.446;2023-05-25T11:35:59;102454.16;;;20.54
28905;BMP280;60848;53.884;11.446;2023-05-25T11:38:28;102444.28;;;20.54
28905;BMP280;60848;53.884;11.446;2023-05-25T11:40:58;102434.03;;;20.53
28905;BMP280;60848;53.884;11.446;2023-05-25T11:43:30;102437.41;;;20.60
28905;BMP280;60848;53.884;11.446;2023-05-25T11:46:07;102435.09;;;20.66
28905;BMP280;60848;53.884;11.446;2023-05-25T11:48:44;102444.53;;;20.77
28905;BMP280;60848;53.884;11.446;2023-05-25T11:51:12;102441.03;;;20.84
28905;BMP280;60848;53.884;11.446;2023-05-25T11:53:42;102441.03;;;20.84
28905;BMP280;60848;53.884;11.446;2023-05-25T11:56:14;102436.91;;;20.79
28905;BMP280;60848;53.884;11.446;2023-05-25T11:58:59;102427.44;;;20.75
28905;BMP280;60848;53.884;11.446;2023-05-25T12:01:28;102436.63;;;20.67
28905;BMP280;60848;53.884;11.446;2023-05-25T12:04:04;102434.72;;;20.67
28905;BMP280;60848;53.884;11.446;2023-05-25T12:06:35;102437.00;;;20.65
28905;BMP280;60848;53.884;11.446;2023-05-25T12:09:09;102438.19;;;20.57
28905;BMP280;60848;53.884;11.446;2023-05-25T12:11:39;102432.97;;;20.47
28905;BMP280;60848;53.884;11.446;2023-05-25T12:14:14;102435.63;;;20.40
28905;BMP280;60848;53.884;11.446;2023-05-25T12:16:45;102439.09;;;20.37
28905;BMP280;60848;53.884;11.446;2023-05-25T12:19:14;102430.38;;;20.33
28905;BMP280;60848;53.884;11.446;2023-05-25T12:21:43;102436.44;;;20.30
28905;BMP280;60848;53.884;11.446;2023-05-25T12:24:12;102443.66;;;20.29
28905;BMP280;60848;53.884;11.446;2023-05-25T12:26:48;102436.44;;;20.30
28905;BMP280;60848;53.884;11.446;2023-05-25T12:29:20;102441.34;;;20.31
28905;BMP280;60848;53.884;11.446;2023-05-25T12:31:48;102441.34;;;20.38
28905;BMP280;60848;53.884;11.446;2023-05-25T12:34:17;102434.41;;;20.51
28905;BMP280;60848;53.884;11.446;2023-05-25T12:36:47;102430.88;;;20.68
28905;BMP280;60848;53.884;11.446;2023-05-25T12:39:30;102428.56;;;20.77
28905;BMP280;60848;53.884;11.446;2023-05-25T12:42:02;102419.75;;;20.87
28905;BMP280;60848;53.884;11.446;2023-05-25T12:44:32;102422.34;;;20.94
28905;BMP280;60848;53.884;11.446;2023-05-25T12:47:10;102423.78;;;21.02
28905;BMP280;60848;53.884;11.446;2023-05-25T12:49:40;102421.03;;;21.13
28905;BMP280;60848;53.884;11.446;2023-05-25T12:52:09;102416.41;;;21.24
28905;BMP280;60848;53.884;11.446;2023-05-25T12:54:40;102417.47;;;21.30
28905;BMP280;60848;53.884;11.446;2023-05-25T12:57:12;102404.16;;;21.30
28905;BMP280;60848;53.884;11.446;2023-05-25T12:59:42;102406.81;;;21.30
28905;BMP280;60848;53.884;11.446;2023-05-25T13:02:11;102408.72;;;21.29
28905;BMP280;60848;53.884;11.446;2023-05-25T13:04:40;102399.28;;;21.21
28905;BMP280;60848;53.884;11.446;2023-05-25T13:07:10;102403.22;;;21.06
28905;BMP280;60848;53.884;11.446;2023-05-25T13:09:39;102408.66;;;20.92
28905;BMP280;60848;53.884;11.446;2023-05-25T13:12:07;102401.16;;;20.84
28905;BMP280;60848;53.884;11.446;2023-05-25T13:14:37;102409.56;;;20.79
28905;BMP280;60848;53.884;11.446;2023-05-25T13:17:06;102402.34;;;20.72
28905;BMP280;60848;53.884;11.446;2023-05-25T13:19:34;102398.22;;;20.71
28905;BMP280;60848;53.884;11.446;2023-05-25T13:22:03;102394.38;;;20.72
28905;BMP280;60848;53.884;11.446;2023-05-25T13:24:32;102399.69;;;20.72
28905;BMP280;60848;53.884;11.446;2023-05-25T13:27:01;102395.91;;;20.70
28905;BMP280;60848;53.884;11.446;2023-05-25T13:29:29;102390.25;;;20.71
28905;BMP280;60848;53.884;11.446;2023-05-25T13:31:59;102386.78;;;20.74
28905;BMP280;60848;53.884;11.446;2023-05-25T13:34:30;102381.09;;;20.72
28905;BMP280;60848;53.884;11.446;2023-05-25T13:36:59;102381.91;;;20.66
28905;BMP280;60848;53.884;11.446;2023-05-25T13:39:28;102393.75;;;20.58
28905;BMP280;60848;53.884;11.446;2023-05-25T13:41:56;102394.16;;;20.53
28905;BMP280;60848;53.884;11.446;2023-05-25T13:44:25;102383.22;;;20.40
28905;BMP280;60848;53.884;11.446;2023-05-25T13:46:54;102387.84;;;20.29
28905;BMP280;60848;53.884;11.446;2023-05-25T13:49:24;102382.59;;;20.19
28905;BMP280;60848;53.884;11.446;2023-05-25T13:51:54;102392.53;;;20.08
28905;BMP280;60848;53.884;11.446;2023-05-25T13:54:23;102392.59;;;20.01
28905;BMP280;60848;53.884;11.446;2023-05-25T13:56:53;102387.25;;;19.94
28905;BMP280;60848;53.884;11.446;2023-05-25T13:59:22;102396.03;;;19.87
28905;BMP280;60848;53.884;11.446;2023-05-25T14:01:50;102388.47;;;19.79
28905;BMP280;60848;53.884;11.446;2023-05-25T14:04:25;102386.59;;;19.72